createdAt,value
2022-07-30T00:00:24.671Z,6.85
2022-07-30T00:02:53.167Z,7.10
2022-07-30T00:05:20.894Z,6.90
2022-07-30T00:07:48.241Z,8.55
2022-07-30T00:10:15.277Z,7.97
2022-07-30T00:12:42.078Z,6.57
2022-07-30T00:15:09.719Z,6.68
2022-07-30T00:17:36.540Z,6.45
2022-07-30T00:20:04.081Z,7.15
2022-07-30T00:22:31.753Z,6.82
2022-07-30T00:24:59.123Z,7.13
2022-07-30T00:27:26.464Z,6.80
2022-07-30T00:29:53.302Z,6.50
2022-07-30T00:32:20.260Z,6.45
2022-07-30T00:34:47.105Z,6.20
2022-07-30T00:37:13.909Z,6.15
2022-07-30T00:39:40.741Z,6.43
2022-07-30T00:42:07.639Z,6.13
2022-07-30T00:44:34.482Z,6.03
2022-07-30T00:47:01.948Z,5.50
2022-07-30T00:49:30.531Z,6.28
2022-07-30T00:51:57.459Z,6.13
2022-07-30T00:54:24.405Z,6.45
2022-07-30T00:56:51.621Z,6.22
2022-07-30T00:59:18.508Z,5.82
2022-07-30T01:01:45.456Z,5.85
2022-07-30T01:04:12.341Z,6.43
2022-07-30T01:06:40.068Z,6.07
2022-07-30T01:09:08.048Z,5.93
2022-07-30T01:11:41.198Z,5.85
2022-07-30T01:14:09.593Z,5.38
2022-07-30T01:16:38.050Z,5.40
2022-07-30T01:19:30.145Z,5.20
2022-07-30T01:22:30.877Z,5.43
2022-07-30T01:25:03.983Z,5.55
2022-07-30T01:27:35.332Z,6.32
2022-07-30T01:30:05.682Z,5.47
2022-07-30T01:32:35.764Z,5.72
2022-07-30T01:35:04.772Z,6.22
2022-07-30T01:37:33.744Z,6.00
2022-07-30T01:40:01.093Z,5.65
2022-07-30T01:42:30.087Z,5.57
2022-07-30T01:44:59.124Z,5.10
2022-07-30T01:47:28.331Z,5.60
2022-07-30T01:49:57.629Z,5.22
2022-07-30T01:52:26.958Z,5.80
2022-07-30T01:54:56.271Z,5.75
2022-07-30T01:57:23.542Z,5.60
2022-07-30T01:59:55.033Z,5.60
2022-07-30T02:02:21.956Z,5.70
2022-07-30T02:04:49.488Z,5.65
2022-07-30T02:07:40.600Z,5.78
2022-07-30T02:10:14.541Z,6.20
2022-07-30T02:12:55.647Z,5.55
2022-07-30T02:15:30.561Z,5.85
2022-07-30T02:18:10.619Z,5.13
2022-07-30T02:20:38.388Z,5.65
2022-07-30T02:23:10.545Z,5.53
2022-07-30T02:25:40.833Z,5.57
2022-07-30T02:28:12.045Z,4.85
2022-07-30T02:30:47.337Z,5.10
2022-07-30T02:33:15.653Z,5.35
2022-07-30T02:35:42.731Z,5.35
2022-07-30T02:38:12.001Z,4.68
2022-07-30T02:40:42.116Z,5.05
2022-07-30T02:43:09.892Z,4.95
2022-07-30T02:45:38.102Z,6.05
2022-07-30T02:48:09.079Z,4.55
2022-07-30T02:50:39.632Z,4.90
2022-07-30T02:53:12.461Z,4.82
2022-07-30T02:55:42.655Z,4.45
2022-07-30T02:58:11.590Z,4.30
2022-07-30T03:00:39.113Z,4.28
2022-07-30T03:03:07.738Z,4.13
2022-07-30T03:05:38.553Z,3.85
2022-07-30T03:08:06.159Z,4.35
2022-07-30T03:10:34.076Z,3.90
2022-07-30T03:13:02.462Z,3.75
2022-07-30T03:15:30.810Z,4.28
2022-07-30T03:17:59.753Z,4.18
2022-07-30T03:20:30.951Z,4.00
2022-07-30T03:22:59.664Z,4.55
2022-07-30T03:25:30.959Z,4.43
2022-07-30T03:28:01.888Z,4.80
2022-07-30T03:30:29.334Z,4.20
2022-07-30T03:32:57.293Z,3.53
2022-07-30T03:35:25.111Z,3.72
2022-07-30T03:37:55.504Z,3.40
2022-07-30T03:40:23.492Z,3.38
2022-07-30T03:42:50.841Z,3.53
2022-07-30T03:45:21.756Z,3.28
2022-07-30T03:47:50.738Z,3.58
2022-07-30T03:50:17.645Z,2.97
2022-07-30T03:52:45.073Z,3.35
2022-07-30T03:55:17.178Z,3.23
2022-07-30T03:58:06.254Z,3.80
2022-07-30T04:00:35.249Z,3.28
2022-07-30T04:03:02.169Z,3.22
2022-07-30T04:05:45.002Z,3.10
2022-07-30T04:08:12.456Z,2.50
2022-07-30T04:10:40.813Z,2.75
2022-07-30T04:13:09.571Z,2.58
2022-07-30T04:16:17.719Z,2.60
2022-07-30T04:18:44.536Z,2.28
2022-07-30T04:26:35.607Z,2.60
2022-07-30T04:29:07.630Z,2.20
2022-07-30T04:31:40.476Z,2.20
2022-07-30T04:34:28.039Z,2.67
2022-07-30T04:36:54.903Z,2.20
2022-07-30T04:39:21.666Z,2.20
2022-07-30T04:41:50.028Z,2.38
2022-07-30T04:44:32.239Z,2.70
2022-07-30T04:47:22.053Z,1.98
2022-07-30T04:50:10.219Z,1.88
2022-07-30T04:52:37.611Z,2.03
2022-07-30T04:55:08.234Z,2.00
2022-07-30T04:57:37.606Z,1.98
2022-07-30T05:00:06.894Z,1.95
2022-07-30T05:02:40.130Z,1.73
2022-07-30T05:05:08.736Z,2.20
2022-07-30T05:07:37.986Z,2.17
2022-07-30T05:10:06.869Z,2.15
2022-07-30T05:12:34.668Z,2.00
2022-07-30T05:15:01.504Z,2.10
2022-07-30T05:17:28.293Z,1.98
2022-07-30T05:19:55.114Z,2.03
2022-07-30T05:22:21.877Z,2.30
2022-07-30T05:24:48.668Z,2.35
2022-07-30T05:27:15.934Z,2.03
2022-07-30T05:29:42.704Z,1.77
2022-07-30T05:32:13.834Z,1.50
2022-07-30T05:34:42.416Z,1.50
2022-07-30T05:37:09.851Z,1.52
2022-07-30T05:39:37.022Z,2.13
2022-07-30T05:42:50.499Z,1.80
2022-07-30T05:45:17.306Z,1.75
2022-07-30T05:47:44.384Z,1.65
2022-07-30T05:50:12.716Z,1.80
2022-07-30T05:52:39.768Z,2.10
2022-07-30T05:55:25.140Z,2.05
2022-07-30T05:58:12.159Z,1.60
2022-07-30T06:00:39.415Z,1.60
2022-07-30T06:03:06.821Z,1.58
2022-07-30T06:06:07.975Z,1.25
2022-07-30T06:08:35.177Z,1.55
2022-07-30T06:11:02.227Z,1.15
2022-07-30T06:13:29.777Z,1.40
2022-07-30T06:15:56.824Z,1.15
2022-07-30T06:18:23.741Z,1.40
2022-07-30T06:20:54.345Z,1.30
2022-07-30T06:23:44.654Z,1.15
2022-07-30T06:26:27.197Z,1.30
2022-07-30T06:28:54.029Z,1.30
2022-07-30T06:31:28.289Z,1.50
2022-07-30T06:33:55.349Z,1.50
2022-07-30T06:36:23.201Z,1.15
2022-07-30T06:39:10.195Z,1.42
2022-07-30T06:42:03.584Z,1.02
2022-07-30T06:44:50.433Z,1.52
2022-07-30T06:47:28.938Z,1.45
2022-07-30T06:49:57.388Z,1.92
2022-07-30T06:52:25.526Z,1.15
2022-07-30T06:54:53.402Z,1.17
2022-07-30T06:57:26.883Z,1.25
2022-07-30T06:59:56.124Z,1.63
2022-07-30T07:02:39.984Z,2.30
2022-07-30T07:05:12.664Z,1.50
2022-07-30T07:07:52.503Z,1.52
2022-07-30T07:10:27.614Z,1.50
2022-07-30T07:13:07.982Z,1.40
2022-07-30T07:15:36.935Z,1.33
2022-07-30T07:18:07.061Z,1.20
2022-07-30T07:20:38.936Z,1.40
2022-07-30T07:23:09.150Z,1.33
2022-07-30T07:25:39.896Z,1.48
2022-07-30T07:28:10.912Z,2.55
2022-07-30T07:30:41.554Z,1.30
2022-07-30T07:33:08.697Z,1.27
2022-07-30T07:35:48.457Z,1.60
2022-07-30T07:38:20.158Z,1.20
2022-07-30T07:40:48.215Z,1.60
2022-07-30T07:43:15.727Z,1.10
2022-07-30T07:45:43.306Z,1.25
2022-07-30T07:48:10.219Z,1.33
2022-07-30T07:51:00.355Z,1.20
2022-07-30T07:53:30.225Z,1.33
2022-07-30T07:55:57.396Z,1.30
2022-07-30T07:58:26.595Z,1.20
2022-07-30T08:00:57.506Z,1.30
2022-07-30T08:03:42.371Z,1.15
2022-07-30T08:06:29.126Z,1.42
2022-07-30T08:09:27.951Z,1.50
2022-07-30T08:12:40.882Z,1.65
2022-07-30T08:15:34.171Z,1.92
2022-07-30T08:18:19.234Z,1.10
2022-07-30T08:21:09.202Z,1.40
2022-07-30T08:23:39.685Z,1.50
2022-07-30T08:26:09.031Z,1.40
2022-07-30T08:28:36.883Z,1.40
2022-07-30T08:31:06.718Z,1.20
2022-07-30T08:33:34.198Z,1.38
2022-07-30T08:36:04.014Z,1.20
2022-07-30T08:38:32.695Z,1.20
2022-07-30T08:40:59.612Z,1.20
2022-07-30T08:43:27.196Z,1.38
2022-07-30T08:45:56.974Z,1.40
2022-07-30T08:48:47.449Z,1.50
2022-07-30T08:51:18.169Z,1.08
2022-07-30T08:54:04.481Z,1.25
2022-07-30T08:56:33.129Z,1.55
2022-07-30T08:59:00.703Z,1.20
2022-07-30T09:01:27.660Z,1.50
2022-07-30T09:03:56.700Z,1.10
2022-07-30T09:06:25.833Z,1.50
2022-07-30T09:08:52.710Z,1.48
2022-07-30T09:11:19.525Z,1.30
2022-07-30T09:13:47.108Z,1.45
2022-07-30T09:16:24.337Z,1.30
2022-07-30T09:18:54.507Z,1.90
2022-07-30T09:21:26.751Z,1.30
2022-07-30T09:24:13.696Z,1.27
2022-07-30T09:27:07.637Z,1.33
2022-07-30T09:30:02.247Z,1.17
2022-07-30T09:32:52.802Z,1.25
2022-07-30T09:35:45.525Z,1.40
2022-07-30T09:38:13.158Z,1.35
2022-07-30T09:40:57.569Z,1.15
2022-07-30T09:43:42.380Z,1.30
2022-07-30T09:46:12.762Z,1.20
2022-07-30T09:48:39.722Z,1.42
2022-07-30T09:51:06.847Z,1.35
2022-07-30T09:53:57.020Z,1.40
2022-07-30T09:56:30.024Z,1.30
2022-07-30T09:58:58.736Z,1.00
2022-07-30T10:01:25.550Z,1.05
2022-07-30T10:04:32.870Z,1.30
2022-07-30T10:07:25.487Z,1.23
2022-07-30T10:09:59.753Z,1.23
2022-07-30T10:12:27.929Z,1.40
2022-07-30T10:15:01.936Z,1.17
2022-07-30T10:17:34.413Z,1.20
2022-07-30T10:20:19.953Z,1.42
2022-07-30T10:23:09.054Z,1.38
2022-07-30T10:25:54.840Z,1.40
2022-07-30T10:28:41.564Z,2.65
2022-07-30T10:31:46.702Z,1.20
2022-07-30T10:33:56.501Z,1.38
2022-07-30T10:36:24.949Z,0.93
2022-07-30T10:38:53.174Z,1.05
2022-07-30T10:41:48.229Z,1.20
2022-07-30T10:44:30.194Z,1.30
2022-07-30T10:47:07.218Z,1.42
2022-07-30T10:49:40.547Z,1.30
2022-07-30T10:52:09.052Z,1.23
2022-07-30T10:54:40.401Z,1.20
2022-07-30T10:57:32.221Z,1.33
2022-07-30T10:59:59.846Z,1.10
2022-07-30T11:02:35.662Z,1.33
2022-07-30T11:05:18.394Z,1.23
2022-07-30T11:07:47.389Z,1.00
2022-07-30T11:10:40.299Z,1.10
2022-07-30T11:13:08.615Z,1.90
2022-07-30T11:15:55.056Z,1.70
2022-07-30T11:18:24.985Z,1.45
2022-07-30T11:21:21.454Z,1.55
2022-07-30T11:23:53.443Z,1.63
2022-07-30T11:26:48.977Z,1.60
2022-07-30T11:29:34.186Z,1.45
2022-07-30T11:32:30.276Z,1.20
2022-07-30T11:35:18.068Z,1.63
2022-07-30T11:38:10.119Z,1.35
2022-07-30T11:40:42.414Z,1.33
2022-07-30T11:43:39.391Z,1.65
2022-07-30T11:46:10.505Z,1.30
2022-07-30T11:48:40.715Z,1.33
2022-07-30T11:51:08.770Z,1.23
2022-07-30T11:53:36.035Z,1.60
2022-07-30T11:56:06.650Z,1.30
2022-07-30T11:58:37.273Z,1.35
2022-07-30T12:01:09.321Z,1.42
2022-07-30T12:03:41.035Z,1.48
2022-07-30T12:06:13.736Z,1.58
2022-07-30T12:08:42.446Z,1.23
2022-07-30T12:11:09.796Z,1.00
2022-07-30T12:13:44.961Z,1.30
2022-07-30T12:16:18.552Z,1.27
2022-07-30T12:18:46.992Z,1.17
2022-07-30T12:21:17.761Z,1.17
2022-07-30T12:24:07.659Z,1.15
2022-07-30T12:26:35.375Z,1.23
2022-07-30T12:29:06.687Z,1.00
2022-07-30T12:31:34.120Z,1.35
2022-07-30T12:34:05.248Z,1.20
2022-07-30T12:36:34.056Z,1.23
2022-07-30T12:39:02.940Z,0.90
2022-07-30T12:41:42.953Z,1.40
2022-07-30T12:44:10.159Z,1.20
2022-07-30T12:46:41.337Z,1.20
2022-07-30T12:49:22.480Z,1.50
2022-07-30T12:51:59.761Z,1.23
2022-07-30T12:54:28.439Z,1.00
2022-07-30T12:57:01.861Z,1.10
2022-07-30T12:59:30.521Z,1.35
2022-07-30T13:02:00.212Z,1.67
2022-07-30T13:04:28.001Z,1.10
2022-07-30T13:07:11.726Z,1.27
2022-07-30T13:16:41.892Z,1.30
2022-07-30T13:19:13.551Z,1.52
2022-07-30T13:21:49.815Z,1.30
2022-07-30T13:24:18.454Z,1.30
2022-07-30T13:26:45.988Z,1.40
2022-07-30T13:31:43.676Z,1.73
2022-07-30T13:34:12.022Z,1.35
2022-07-30T13:36:38.960Z,1.92
2022-07-30T13:39:05.722Z,1.50
2022-07-30T13:41:33.281Z,1.20
2022-07-30T13:44:00.123Z,1.52
2022-07-30T13:46:26.823Z,1.60
2022-07-30T13:48:53.724Z,1.40
2022-07-30T13:51:20.784Z,1.33
2022-07-30T13:53:47.630Z,1.20
2022-07-30T13:56:14.390Z,1.35
2022-07-30T13:58:42.455Z,1.38
2022-07-30T14:01:10.151Z,2.13
2022-07-30T14:03:49.773Z,1.65
2022-07-30T14:06:17.273Z,1.20
2022-07-30T14:08:44.032Z,2.28
2022-07-30T14:11:10.862Z,1.60
2022-07-30T14:13:38.096Z,1.73
2022-07-30T14:16:10.684Z,1.65
2022-07-30T14:18:40.812Z,1.40
2022-07-30T14:21:07.687Z,1.42
2022-07-30T14:23:34.473Z,1.50
2022-07-30T14:26:02.376Z,1.70
2022-07-30T14:28:29.239Z,1.50
2022-07-30T14:30:56.158Z,1.40
2022-07-30T14:33:22.871Z,1.40
2022-07-30T14:35:49.667Z,1.50
2022-07-30T14:38:17.151Z,1.80
2022-07-30T14:40:43.978Z,2.08
2022-07-30T14:43:10.677Z,1.88
2022-07-30T14:45:37.514Z,1.60
2022-07-30T14:48:04.572Z,2.20
2022-07-30T14:50:31.348Z,1.80
2022-07-30T14:52:58.120Z,1.58
2022-07-30T14:55:25.227Z,1.50
2022-07-30T14:57:51.992Z,3.85
2022-07-30T15:00:19.419Z,1.80
2022-07-30T15:02:48.144Z,1.73
2022-07-30T15:05:14.957Z,1.90
2022-07-30T15:07:41.799Z,1.63
2022-07-30T15:10:09.038Z,1.73
2022-07-30T15:12:37.132Z,1.70
2022-07-30T15:15:05.602Z,1.77
2022-07-30T15:17:35.295Z,1.77
2022-07-30T15:20:02.124Z,2.00
2022-07-30T15:22:28.994Z,1.90
2022-07-30T15:24:55.746Z,1.60
2022-07-30T15:27:31.814Z,1.70
2022-07-30T15:30:01.034Z,1.77
2022-07-30T15:32:27.717Z,1.63
2022-07-30T15:34:56.248Z,2.67
2022-07-30T15:37:22.965Z,1.88
2022-07-30T15:39:49.767Z,1.98
2022-07-30T15:42:16.502Z,1.83
2022-07-30T15:44:48.599Z,1.65
2022-07-30T15:47:16.051Z,1.85
2022-07-30T15:49:42.728Z,2.00
2022-07-30T15:52:09.531Z,1.95
2022-07-30T15:54:36.229Z,2.00
2022-07-30T15:57:03.088Z,2.30
2022-07-30T15:59:30.332Z,1.80
2022-07-30T16:01:57.878Z,1.88
2022-07-30T16:04:31.159Z,2.20
2022-07-30T16:07:04.429Z,2.10
2022-07-30T16:09:31.275Z,2.13
2022-07-30T16:11:58.745Z,2.20
2022-07-30T16:14:26.169Z,2.20
2022-07-30T16:16:53.110Z,2.10
2022-07-30T16:19:20.347Z,2.20
2022-07-30T16:21:47.134Z,2.17
2022-07-30T16:24:13.921Z,2.17
2022-07-30T16:26:40.619Z,2.40
2022-07-30T16:29:11.894Z,2.80
2022-07-30T16:31:40.461Z,2.10
2022-07-30T16:34:07.237Z,1.83
2022-07-30T16:36:34.187Z,2.13
2022-07-30T16:39:01.369Z,2.50
2022-07-30T16:41:28.303Z,2.20
2022-07-30T16:43:55.008Z,2.50
2022-07-30T16:46:21.865Z,2.47
2022-07-30T16:48:50.587Z,2.75
2022-07-30T16:51:17.745Z,3.10
2022-07-30T16:53:44.608Z,2.80
2022-07-30T16:56:11.313Z,2.88
2022-07-30T16:58:38.053Z,2.75
2022-07-30T17:01:04.899Z,2.80
2022-07-30T17:03:31.692Z,2.20
2022-07-30T17:05:58.393Z,2.55
2022-07-30T17:08:25.510Z,2.58
2022-07-30T17:10:53.160Z,2.80
2022-07-30T17:13:20.529Z,2.80
2022-07-30T17:15:47.917Z,2.97
2022-07-30T17:18:15.682Z,2.75
2022-07-30T17:20:42.972Z,3.05
2022-07-30T17:23:09.720Z,3.10
2022-07-30T17:25:36.460Z,3.17
2022-07-30T17:28:03.479Z,2.97
2022-07-30T17:30:30.525Z,3.42
2022-07-30T17:32:57.895Z,3.33
2022-07-30T17:35:24.895Z,3.22
2022-07-30T17:37:51.839Z,3.83
2022-07-30T17:40:27.149Z,3.10
2022-07-30T17:43:03.769Z,3.95
2022-07-30T17:45:35.012Z,3.42
2022-07-30T17:48:02.732Z,2.95
2022-07-30T17:50:33.672Z,3.45
2022-07-30T17:53:03.562Z,3.50
2022-07-30T17:55:31.773Z,2.78
2022-07-30T17:57:58.559Z,3.00
2022-07-30T18:00:25.722Z,2.75
2022-07-30T18:02:52.581Z,3.17
2022-07-30T18:05:19.464Z,3.22
2022-07-30T18:07:46.286Z,3.13
2022-07-30T18:10:13.167Z,3.60
2022-07-30T18:12:48.887Z,3.28
2022-07-30T18:15:17.630Z,3.88
2022-07-30T18:17:44.733Z,3.58
2022-07-30T18:20:11.938Z,3.60
2022-07-30T18:22:38.727Z,3.30
2022-07-30T18:25:07.985Z,3.55
2022-07-30T18:27:44.907Z,3.05
2022-07-30T18:30:11.853Z,3.08
2022-07-30T18:32:38.602Z,3.33
2022-07-30T18:35:05.830Z,3.72
2022-07-30T18:37:41.262Z,3.17
2022-07-30T18:40:09.688Z,3.05
2022-07-30T18:42:36.414Z,3.10
2022-07-30T18:45:03.706Z,3.10
2022-07-30T18:47:30.425Z,3.28
2022-07-30T18:49:57.276Z,3.50
2022-07-30T18:52:24.108Z,3.50
2022-07-30T18:54:50.866Z,3.42
2022-07-30T18:57:17.681Z,3.45
2022-07-30T18:59:44.461Z,3.08
2022-07-30T19:02:11.243Z,3.08
2022-07-30T19:04:38.028Z,3.45
2022-07-30T19:07:04.825Z,3.03
2022-07-30T19:09:31.640Z,3.33
2022-07-30T19:11:58.429Z,3.42
2022-07-30T19:14:25.224Z,3.60
2022-07-30T19:16:52.582Z,3.08
2022-07-30T19:19:20.861Z,3.20
2022-07-30T19:21:47.656Z,3.00
2022-07-30T19:24:14.383Z,3.00
2022-07-30T19:26:43.090Z,3.30
2022-07-30T19:29:10.023Z,3.13
2022-07-30T19:31:36.836Z,2.75
2022-07-30T19:34:03.773Z,3.30
2022-07-30T19:36:30.653Z,3.22
2022-07-30T19:39:06.879Z,2.97
2022-07-30T19:41:40.555Z,3.15
2022-07-30T19:44:11.323Z,3.22
2022-07-30T19:46:38.753Z,3.25
2022-07-30T19:49:08.415Z,2.90
2022-07-30T19:52:09.868Z,3.05
2022-07-30T19:54:22.061Z,3.38
2022-07-30T19:56:49.198Z,3.10
2022-07-30T19:59:15.964Z,3.30
2022-07-30T20:01:44.221Z,3.17
2022-07-30T20:04:14.707Z,3.50
2022-07-30T20:06:46.063Z,3.13
2022-07-30T20:09:15.053Z,3.00
2022-07-30T20:11:43.618Z,2.97
2022-07-30T20:14:10.503Z,3.10
2022-07-30T20:16:37.854Z,3.42
2022-07-30T20:19:04.905Z,3.40
2022-07-30T20:21:54.276Z,3.00
2022-07-30T20:24:20.365Z,3.13
2022-07-30T20:26:47.868Z,3.03
2022-07-30T20:29:18.987Z,3.40
2022-07-30T20:31:49.641Z,3.30
2022-07-30T20:34:20.691Z,3.50
2022-07-30T20:36:51.240Z,3.22
2022-07-30T20:39:19.938Z,3.58
2022-07-30T20:41:46.886Z,3.30
2022-07-30T20:44:23.612Z,3.35
2022-07-30T20:46:52.926Z,3.50
2022-07-30T20:49:24.094Z,3.47
2022-07-30T20:52:01.277Z,3.35
2022-07-30T20:54:30.311Z,3.30
2022-07-30T20:56:57.439Z,3.20
2022-07-30T20:59:24.906Z,3.40
2022-07-30T21:01:51.718Z,3.45
2022-07-30T21:04:25.378Z,3.55
2022-07-30T21:06:52.699Z,3.22
2022-07-30T21:09:20.014Z,3.40
2022-07-30T21:11:50.383Z,3.28
2022-07-30T21:14:20.034Z,3.53
2022-07-30T21:16:46.944Z,3.60
2022-07-30T21:19:18.499Z,3.70
2022-07-30T21:21:48.137Z,3.42
2022-07-30T21:24:33.960Z,3.28
2022-07-30T21:27:00.884Z,3.53
2022-07-30T21:29:28.845Z,3.67
2022-07-30T21:32:08.889Z,3.75
2022-07-30T21:34:41.948Z,3.53
2022-07-30T21:37:09.346Z,3.83
2022-07-30T21:39:39.958Z,4.00
2022-07-30T21:42:08.460Z,3.88
2022-07-30T21:44:36.254Z,3.65
2022-07-30T21:47:05.718Z,3.80
2022-07-30T21:49:37.737Z,3.38
2022-07-30T21:52:05.178Z,3.75
2022-07-30T21:54:48.166Z,3.78
2022-07-30T21:57:26.177Z,4.22
2022-07-30T21:59:55.169Z,3.85
2022-07-30T22:02:23.249Z,3.92
2022-07-30T22:04:51.474Z,3.47
2022-07-30T22:07:18.319Z,3.90
2022-07-30T22:09:45.198Z,3.30
2022-07-30T22:12:13.032Z,3.95
2022-07-30T22:14:45.391Z,3.60
2022-07-30T22:17:23.475Z,3.95
2022-07-30T22:20:03.374Z,3.78
2022-07-30T22:22:35.529Z,3.55
2022-07-30T22:27:39.722Z,3.78
2022-07-30T22:30:21.345Z,4.07
2022-07-30T22:32:49.584Z,3.90
2022-07-30T22:35:16.772Z,3.90
2022-07-30T22:37:47.633Z,4.32
2022-07-30T22:40:15.213Z,4.22
2022-07-30T22:42:49.735Z,3.92
2022-07-30T22:45:35.973Z,3.92
2022-07-30T22:48:10.089Z,3.70
2022-07-30T22:50:40.160Z,4.25
2022-07-30T22:53:09.771Z,4.22
2022-07-30T22:55:43.362Z,3.63
2022-07-30T22:58:10.644Z,4.07
2022-07-30T23:00:37.374Z,3.80
2022-07-30T23:03:05.668Z,3.90
2022-07-30T23:05:35.582Z,5.10
2022-07-30T23:08:03.637Z,4.22
2022-07-30T23:10:30.446Z,4.25
2022-07-30T23:12:58.905Z,3.90
2022-07-30T23:15:25.679Z,4.28
2022-07-30T23:17:53.261Z,4.35
2022-07-30T23:20:20.971Z,4.15
2022-07-30T23:22:48.302Z,4.32
2022-07-30T23:25:15.520Z,3.85
2022-07-30T23:27:42.972Z,4.30
2022-07-30T23:30:11.381Z,3.85
2022-07-30T23:32:40.007Z,4.50
2022-07-30T23:35:08.824Z,4.43
2022-07-30T23:37:37.938Z,4.22
2022-07-30T23:40:15.645Z,4.55
2022-07-30T23:42:42.334Z,4.05
2022-07-30T23:45:09.481Z,4.43
2022-07-30T23:48:02.159Z,4.72
2022-07-30T23:50:25.223Z,4.65
2022-07-30T23:52:52.039Z,4.68
2022-07-30T23:55:18.938Z,4.78
2022-07-30T23:57:45.718Z,4.85
